sensor_id;sensor_type;location;lat;lon;timestamp;P1;durP1;ratioP1;P2;durP2;ratioP2
11010;SDS011;5558;42.702;23.178;2023-08-21T00:00:32;5.17;;;4.67;;
11010;SDS011;5558;42.702;23.178;2023-08-21T00:02:58;5.20;;;4.70;;
11010;SDS011;5558;42.702;23.178;2023-08-21T00:05:25;5.40;;;4.70;;
11010;SDS011;5558;42.702;23.178;2023-08-21T00:07:52;5.00;;;4.60;;
11010;SDS011;5558;42.702;23.178;2023-08-21T00:10:18;7.40;;;5.40;;
11010;SDS011;5558;42.702;23.178;2023-08-21T00:12:45;5.87;;;4.40;;
11010;SDS011;5558;42.702;23.178;2023-08-21T00:15:13;6.60;;;4.53;;
11010;SDS011;5558;42.702;23.178;2023-08-21T00:17:40;6.73;;;4.70;;
11010;SDS011;5558;42.702;23.178;2023-08-21T00:20:06;4.97;;;4.57;;
11010;SDS011;5558;42.702;23.178;2023-08-21T00:22:34;6.60;;;4.60;;
11010;SDS011;5558;42.702;23.178;2023-08-21T00:25:01;5.00;;;4.60;;
11010;SDS011;5558;42.702;23.178;2023-08-21T00:27:29;5.70;;;4.53;;
11010;SDS011;5558;42.702;23.178;2023-08-21T00:29:56;6.00;;;4.57;;
11010;SDS011;5558;42.702;23.178;2023-08-21T00:32:24;5.57;;;5.07;;
11010;SDS011;5558;42.702;23.178;2023-08-21T00:34:51;5.10;;;4.60;;
11010;SDS011;5558;42.702;23.178;2023-08-21T00:37:18;5.40;;;4.90;;
11010;SDS011;5558;42.702;23.178;2023-08-21T00:39:44;5.00;;;4.50;;
11010;SDS011;5558;42.702;23.178;2023-08-21T00:42:11;5.67;;;4.50;;
11010;SDS011;5558;42.702;23.178;2023-08-21T00:44:38;5.60;;;4.60;;
11010;SDS011;5558;42.702;23.178;2023-08-21T00:47:04;5.53;;;4.67;;
11010;SDS011;5558;42.702;23.178;2023-08-21T00:49:33;5.10;;;4.63;;
11010;SDS011;5558;42.702;23.178;2023-08-21T00:52:00;5.40;;;4.90;;
11010;SDS011;5558;42.702;23.178;2023-08-21T00:54:27;6.40;;;4.90;;
11010;SDS011;5558;42.702;23.178;2023-08-21T00:56:54;5.90;;;4.67;;
11010;SDS011;5558;42.702;23.178;2023-08-21T00:59:21;5.10;;;4.60;;
11010;SDS011;5558;42.702;23.178;2023-08-21T01:01:48;6.73;;;4.90;;
11010;SDS011;5558;42.702;23.178;2023-08-21T01:04:15;5.60;;;5.10;;
11010;SDS011;5558;42.702;23.178;2023-08-21T01:06:43;5.97;;;4.77;;
11010;SDS011;5558;42.702;23.178;2023-08-21T01:09:12;6.63;;;4.83;;
11010;SDS011;5558;42.702;23.178;2023-08-21T01:11:46;6.13;;;4.90;;
11010;SDS011;5558;42.702;23.178;2023-08-21T01:14:19;6.07;;;4.90;;
11010;SDS011;5558;42.702;23.178;2023-08-21T01:16:53;5.40;;;4.80;;
11010;SDS011;5558;42.702;23.178;2023-08-21T01:19:24;5.90;;;5.03;;
11010;SDS011;5558;42.702;23.178;2023-08-21T01:21:58;6.17;;;5.13;;
11010;SDS011;5558;42.702;23.178;2023-08-21T01:24:26;5.97;;;5.00;;
11010;SDS011;5558;42.702;23.178;2023-08-21T01:26:53;5.30;;;4.87;;
11010;SDS011;5558;42.702;23.178;2023-08-21T01:29:19;5.63;;;5.07;;
11010;SDS011;5558;42.702;23.178;2023-08-21T01:31:46;5.50;;;5.00;;
11010;SDS011;5558;42.702;23.178;2023-08-21T01:34:18;5.30;;;4.80;;
11010;SDS011;5558;42.702;23.178;2023-08-21T01:36:46;5.37;;;4.97;;
11010;SDS011;5558;42.702;23.178;2023-08-21T01:39:13;6.37;;;5.27;;
11010;SDS011;5558;42.702;23.178;2023-08-21T01:41:42;7.50;;;4.90;;
11010;SDS011;5558;42.702;23.178;2023-08-21T01:44:09;6.67;;;5.47;;
11010;SDS011;5558;42.702;23.178;2023-08-21T01:46:35;6.03;;;5.10;;
11010;SDS011;5558;42.702;23.178;2023-08-21T01:49:02;5.50;;;4.90;;
11010;SDS011;5558;42.702;23.178;2023-08-21T01:51:28;9.80;;;5.07;;
11010;SDS011;5558;42.702;23.178;2023-08-21T01:53:55;5.77;;;5.27;;
11010;SDS011;5558;42.702;23.178;2023-08-21T01:56:22;5.63;;;5.03;;
11010;SDS011;5558;42.702;23.178;2023-08-21T01:58:50;5.60;;;5.10;;
11010;SDS011;5558;42.702;23.178;2023-08-21T02:01:16;5.57;;;5.13;;
11010;SDS011;5558;42.702;23.178;2023-08-21T02:03:44;5.20;;;4.80;;
11010;SDS011;5558;42.702;23.178;2023-08-21T02:06:11;5.90;;;4.90;;
11010;SDS011;5558;42.702;23.178;2023-08-21T02:08:38;5.60;;;5.10;;
11010;SDS011;5558;42.702;23.178;2023-08-21T02:11:05;5.90;;;5.33;;
11010;SDS011;5558;42.702;23.178;2023-08-21T02:13:31;6.13;;;5.10;;
11010;SDS011;5558;42.702;23.178;2023-08-21T02:16:00;5.70;;;5.17;;
11010;SDS011;5558;42.702;23.178;2023-08-21T02:18:27;6.13;;;5.00;;
11010;SDS011;5558;42.702;23.178;2023-08-21T02:20:54;5.83;;;5.17;;
11010;SDS011;5558;42.702;23.178;2023-08-21T02:23:21;5.30;;;4.80;;
11010;SDS011;5558;42.702;23.178;2023-08-21T02:25:49;6.03;;;5.10;;
11010;SDS011;5558;42.702;23.178;2023-08-21T02:28:16;5.57;;;4.87;;
11010;SDS011;5558;42.702;23.178;2023-08-21T02:30:42;8.10;;;5.00;;
11010;SDS011;5558;42.702;23.178;2023-08-21T02:33:11;5.80;;;5.30;;
11010;SDS011;5558;42.702;23.178;2023-08-21T02:35:38;5.67;;;5.20;;
11010;SDS011;5558;42.702;23.178;2023-08-21T02:38:04;5.93;;;4.77;;
11010;SDS011;5558;42.702;23.178;2023-08-21T02:40:31;6.23;;;4.93;;
11010;SDS011;5558;42.702;23.178;2023-08-21T02:42:58;5.90;;;5.20;;
11010;SDS011;5558;42.702;23.178;2023-08-21T02:45:24;8.77;;;5.20;;
11010;SDS011;5558;42.702;23.178;2023-08-21T02:47:51;5.60;;;5.10;;
11010;SDS011;5558;42.702;23.178;2023-08-21T02:50:19;5.67;;;4.97;;
11010;SDS011;5558;42.702;23.178;2023-08-21T02:52:46;6.13;;;5.17;;
11010;SDS011;5558;42.702;23.178;2023-08-21T02:55:13;5.93;;;5.33;;
11010;SDS011;5558;42.702;23.178;2023-08-21T02:57:40;5.77;;;5.23;;
11010;SDS011;5558;42.702;23.178;2023-08-21T03:00:07;5.87;;;5.17;;
11010;SDS011;5558;42.702;23.178;2023-08-21T03:02:36;6.60;;;5.10;;
11010;SDS011;5558;42.702;23.178;2023-08-21T03:05:03;5.97;;;4.90;;
11010;SDS011;5558;42.702;23.178;2023-08-21T03:07:33;5.57;;;5.00;;
11010;SDS011;5558;42.702;23.178;2023-08-21T03:10:00;5.50;;;5.00;;
11010;SDS011;5558;42.702;23.178;2023-08-21T03:12:28;5.47;;;4.83;;
11010;SDS011;5558;42.702;23.178;2023-08-21T03:14:54;5.97;;;5.37;;
11010;SDS011;5558;42.702;23.178;2023-08-21T03:17:21;5.03;;;4.63;;
11010;SDS011;5558;42.702;23.178;2023-08-21T03:19:48;5.70;;;5.00;;
11010;SDS011;5558;42.702;23.178;2023-08-21T03:22:14;5.70;;;5.00;;
11010;SDS011;5558;42.702;23.178;2023-08-21T03:24:43;6.00;;;4.90;;
11010;SDS011;5558;42.702;23.178;2023-08-21T03:27:09;6.63;;;5.37;;
11010;SDS011;5558;42.702;23.178;2023-08-21T03:29:36;5.70;;;4.80;;
11010;SDS011;5558;42.702;23.178;2023-08-21T03:32:03;5.63;;;5.03;;
11010;SDS011;5558;42.702;23.178;2023-08-21T03:34:30;7.00;;;4.90;;
11010;SDS011;5558;42.702;23.178;2023-08-21T03:36:56;5.60;;;5.10;;
11010;SDS011;5558;42.702;23.178;2023-08-21T03:39:23;5.80;;;5.20;;
11010;SDS011;5558;42.702;23.178;2023-08-21T03:41:51;6.80;;;5.30;;
11010;SDS011;5558;42.702;23.178;2023-08-21T03:44:18;5.37;;;4.87;;
11010;SDS011;5558;42.702;23.178;2023-08-21T03:46:44;7.57;;;5.70;;
11010;SDS011;5558;42.702;23.178;2023-08-21T03:49:11;5.80;;;5.30;;
11010;SDS011;5558;42.702;23.178;2023-08-21T03:51:37;6.70;;;5.60;;
11010;SDS011;5558;42.702;23.178;2023-08-21T03:54:04;5.87;;;5.33;;
11010;SDS011;5558;42.702;23.178;2023-08-21T03:56:31;5.73;;;5.10;;
11010;SDS011;5558;42.702;23.178;2023-08-21T03:58:59;7.80;;;5.07;;
11010;SDS011;5558;42.702;23.178;2023-08-21T04:01:26;5.53;;;4.80;;
11010;SDS011;5558;42.702;23.178;2023-08-21T04:03:53;5.30;;;4.80;;
11010;SDS011;5558;42.702;23.178;2023-08-21T04:06:20;6.43;;;4.60;;
11010;SDS011;5558;42.702;23.178;2023-08-21T04:08:46;6.37;;;4.60;;
11010;SDS011;5558;42.702;23.178;2023-08-21T04:11:13;6.40;;;4.40;;
11010;SDS011;5558;42.702;23.178;2023-08-21T04:13:41;8.87;;;4.70;;
11010;SDS011;5558;42.702;23.178;2023-08-21T04:16:09;8.90;;;4.93;;
11010;SDS011;5558;42.702;23.178;2023-08-21T04:18:37;6.27;;;4.30;;
11010;SDS011;5558;42.702;23.178;2023-08-21T04:21:04;5.70;;;4.37;;
11010;SDS011;5558;42.702;23.178;2023-08-21T04:23:31;5.67;;;4.03;;
11010;SDS011;5558;42.702;23.178;2023-08-21T04:25:59;7.63;;;4.20;;
11010;SDS011;5558;42.702;23.178;2023-08-21T04:28:27;4.53;;;3.93;;
11010;SDS011;5558;42.702;23.178;2023-08-21T04:30:53;4.50;;;4.10;;
11010;SDS011;5558;42.702;23.178;2023-08-21T04:33:24;6.47;;;4.00;;
11010;SDS011;5558;42.702;23.178;2023-08-21T04:35:50;8.10;;;4.03;;
11010;SDS011;5558;42.702;23.178;2023-08-21T04:38:17;5.13;;;3.70;;
11010;SDS011;5558;42.702;23.178;2023-08-21T04:40:44;4.97;;;3.90;;
11010;SDS011;5558;42.702;23.178;2023-08-21T04:43:10;6.97;;;3.83;;
11010;SDS011;5558;42.702;23.178;2023-08-21T04:45:37;4.67;;;3.80;;
11010;SDS011;5558;42.702;23.178;2023-08-21T04:48:04;4.50;;;3.80;;
11010;SDS011;5558;42.702;23.178;2023-08-21T04:50:32;5.60;;;3.40;;
11010;SDS011;5558;42.702;23.178;2023-08-21T04:52:59;6.70;;;4.03;;
11010;SDS011;5558;42.702;23.178;2023-08-21T04:55:26;4.20;;;3.40;;
11010;SDS011;5558;42.702;23.178;2023-08-21T04:57:52;5.57;;;3.70;;
11010;SDS011;5558;42.702;23.178;2023-08-21T05:00:19;5.63;;;3.43;;
11010;SDS011;5558;42.702;23.178;2023-08-21T05:02:46;4.40;;;3.60;;
11010;SDS011;5558;42.702;23.178;2023-08-21T05:05:12;7.03;;;3.50;;
11010;SDS011;5558;42.702;23.178;2023-08-21T05:07:40;5.15;;;3.75;;
11010;SDS011;5558;42.702;23.178;2023-08-21T05:10:07;7.82;;;3.33;;
11010;SDS011;5558;42.702;23.178;2023-08-21T05:12:34;6.45;;;3.55;;
11010;SDS011;5558;42.702;23.178;2023-08-21T05:15:01;5.53;;;3.40;;
11010;SDS011;5558;42.702;23.178;2023-08-21T05:17:28;4.53;;;3.30;;
11010;SDS011;5558;42.702;23.178;2023-08-21T05:19:56;4.22;;;3.30;;
11010;SDS011;5558;42.702;23.178;2023-08-21T05:22:22;6.50;;;3.50;;
11010;SDS011;5558;42.702;23.178;2023-08-21T05:24:50;6.40;;;3.75;;
11010;SDS011;5558;42.702;23.178;2023-08-21T05:27:17;4.03;;;3.60;;
11010;SDS011;5558;42.702;23.178;2023-08-21T05:29:44;7.30;;;3.47;;
11010;SDS011;5558;42.702;23.178;2023-08-21T05:32:10;11.90;;;3.90;;
11010;SDS011;5558;42.702;23.178;2023-08-21T05:34:37;4.53;;;3.30;;
11010;SDS011;5558;42.702;23.178;2023-08-21T05:37:04;6.38;;;3.42;;
11010;SDS011;5558;42.702;23.178;2023-08-21T05:39:30;8.18;;;3.55;;
11010;SDS011;5558;42.702;23.178;2023-08-21T05:41:58;5.97;;;3.30;;
11010;SDS011;5558;42.702;23.178;2023-08-21T05:44:25;5.68;;;3.30;;
11010;SDS011;5558;42.702;23.178;2023-08-21T05:46:52;5.20;;;3.20;;
11010;SDS011;5558;42.702;23.178;2023-08-21T05:49:18;5.75;;;3.30;;
11010;SDS011;5558;42.702;23.178;2023-08-21T05:51:45;8.05;;;3.22;;
11010;SDS011;5558;42.702;23.178;2023-08-21T05:54:12;3.85;;;3.15;;
11010;SDS011;5558;42.702;23.178;2023-08-21T05:56:38;4.38;;;3.58;;
11010;SDS011;5558;42.702;23.178;2023-08-21T05:59:09;6.38;;;3.30;;
11010;SDS011;5558;42.702;23.178;2023-08-21T06:01:36;7.00;;;3.22;;
11010;SDS011;5558;42.702;23.178;2023-08-21T06:04:03;10.05;;;3.42;;
11010;SDS011;5558;42.702;23.178;2023-08-21T06:06:30;8.20;;;3.20;;
11010;SDS011;5558;42.702;23.178;2023-08-21T06:08:56;4.63;;;3.28;;
11010;SDS011;5558;42.702;23.178;2023-08-21T06:11:23;8.15;;;3.30;;
11010;SDS011;5558;42.702;23.178;2023-08-21T06:13:50;5.35;;;3.13;;
11010;SDS011;5558;42.702;23.178;2023-08-21T06:16:18;5.05;;;3.45;;
11010;SDS011;5558;42.702;23.178;2023-08-21T06:18:44;3.50;;;3.10;;
11010;SDS011;5558;42.702;23.178;2023-08-21T06:21:11;3.78;;;2.78;;
11010;SDS011;5558;42.702;23.178;2023-08-21T06:23:38;3.67;;;2.95;;
11010;SDS011;5558;42.702;23.178;2023-08-21T06:26:04;4.90;;;3.10;;
11010;SDS011;5558;42.702;23.178;2023-08-21T06:28:31;4.80;;;3.20;;
11010;SDS011;5558;42.702;23.178;2023-08-21T06:30:58;6.70;;;3.10;;
11010;SDS011;5558;42.702;23.178;2023-08-21T06:33:28;6.90;;;3.47;;
11010;SDS011;5558;42.702;23.178;2023-08-21T06:35:55;8.50;;;3.40;;
11010;SDS011;5558;42.702;23.178;2023-08-21T06:38:21;4.85;;;3.20;;
11010;SDS011;5558;42.702;23.178;2023-08-21T06:40:48;11.20;;;3.38;;
11010;SDS011;5558;42.702;23.178;2023-08-21T06:43:16;7.60;;;3.60;;
11010;SDS011;5558;42.702;23.178;2023-08-21T06:45:42;5.55;;;3.40;;
11010;SDS011;5558;42.702;23.178;2023-08-21T06:48:09;4.07;;;3.13;;
11010;SDS011;5558;42.702;23.178;2023-08-21T06:50:38;5.53;;;3.40;;
11010;SDS011;5558;42.702;23.178;2023-08-21T06:53:04;3.35;;;2.95;;
11010;SDS011;5558;42.702;23.178;2023-08-21T06:55:31;6.00;;;3.45;;
11010;SDS011;5558;42.702;23.178;2023-08-21T06:57:58;5.03;;;3.17;;
11010;SDS011;5558;42.702;23.178;2023-08-21T07:00:25;6.65;;;3.40;;
11010;SDS011;5558;42.702;23.178;2023-08-21T07:02:51;5.22;;;3.20;;
11010;SDS011;5558;42.702;23.178;2023-08-21T07:05:18;3.75;;;3.42;;
11010;SDS011;5558;42.702;23.178;2023-08-21T07:07:46;4.60;;;3.30;;
11010;SDS011;5558;42.702;23.178;2023-08-21T07:10:13;5.93;;;3.33;;
11010;SDS011;5558;42.702;23.178;2023-08-21T07:12:40;5.38;;;3.40;;
11010;SDS011;5558;42.702;23.178;2023-08-21T07:15:07;3.65;;;3.25;;
11010;SDS011;5558;42.702;23.178;2023-08-21T07:17:34;5.78;;;3.55;;
11010;SDS011;5558;42.702;23.178;2023-08-21T07:20:01;4.50;;;3.40;;
11010;SDS011;5558;42.702;23.178;2023-08-21T07:22:29;5.70;;;3.50;;
11010;SDS011;5558;42.702;23.178;2023-08-21T07:24:57;4.03;;;3.63;;
11010;SDS011;5558;42.702;23.178;2023-08-21T07:27:25;6.85;;;3.47;;
11010;SDS011;5558;42.702;23.178;2023-08-21T07:29:52;5.78;;;3.40;;
11010;SDS011;5558;42.702;23.178;2023-08-21T07:32:18;5.35;;;3.45;;
11010;SDS011;5558;42.702;23.178;2023-08-21T07:34:45;5.57;;;3.60;;
11010;SDS011;5558;42.702;23.178;2023-08-21T07:37:12;6.80;;;3.53;;
11010;SDS011;5558;42.702;23.178;2023-08-21T07:39:38;4.80;;;3.30;;
11010;SDS011;5558;42.702;23.178;2023-08-21T07:42:06;6.38;;;3.70;;
11010;SDS011;5558;42.702;23.178;2023-08-21T07:44:33;5.55;;;3.83;;
11010;SDS011;5558;42.702;23.178;2023-08-21T07:47:00;4.70;;;3.28;;
11010;SDS011;5558;42.702;23.178;2023-08-21T07:49:27;4.95;;;3.85;;
11010;SDS011;5558;42.702;23.178;2023-08-21T07:51:54;4.35;;;3.58;;
11010;SDS011;5558;42.702;23.178;2023-08-21T07:54:21;6.03;;;3.88;;
11010;SDS011;5558;42.702;23.178;2023-08-21T07:56:49;6.40;;;3.83;;
11010;SDS011;5558;42.702;23.178;2023-08-21T07:59:17;8.83;;;3.83;;
11010;SDS011;5558;42.702;23.178;2023-08-21T08:01:44;6.00;;;4.00;;
11010;SDS011;5558;42.702;23.178;2023-08-21T08:04:11;6.47;;;3.90;;
11010;SDS011;5558;42.702;23.178;2023-08-21T08:06:38;7.83;;;3.70;;
11010;SDS011;5558;42.702;23.178;2023-08-21T08:09:04;6.07;;;4.03;;
11010;SDS011;5558;42.702;23.178;2023-08-21T08:11:31;6.57;;;4.20;;
11010;SDS011;5558;42.702;23.178;2023-08-21T08:13:58;8.47;;;4.10;;
11010;SDS011;5558;42.702;23.178;2023-08-21T08:16:26;6.43;;;4.07;;
11010;SDS011;5558;42.702;23.178;2023-08-21T08:18:53;6.63;;;4.10;;
11010;SDS011;5558;42.702;23.178;2023-08-21T08:21:19;4.60;;;3.93;;
11010;SDS011;5558;42.702;23.178;2023-08-21T08:23:46;6.67;;;4.27;;
11010;SDS011;5558;42.702;23.178;2023-08-21T08:26:13;5.43;;;4.40;;
11010;SDS011;5558;42.702;23.178;2023-08-21T08:28:39;7.57;;;4.20;;
11010;SDS011;5558;42.702;23.178;2023-08-21T08:31:06;7.00;;;4.00;;
11010;SDS011;5558;42.702;23.178;2023-08-21T08:33:34;5.37;;;3.90;;
11010;SDS011;5558;42.702;23.178;2023-08-21T08:36:01;5.97;;;3.90;;
11010;SDS011;5558;42.702;23.178;2023-08-21T08:38:28;6.17;;;3.93;;
11010;SDS011;5558;42.702;23.178;2023-08-21T08:40:54;6.40;;;3.93;;
11010;SDS011;5558;42.702;23.178;2023-08-21T08:43:23;5.33;;;3.87;;
11010;SDS011;5558;42.702;23.178;2023-08-21T08:45:51;6.00;;;3.87;;
11010;SDS011;5558;42.702;23.178;2023-08-21T08:48:21;5.10;;;3.90;;
11010;SDS011;5558;42.702;23.178;2023-08-21T08:50:49;5.67;;;3.83;;
11010;SDS011;5558;42.702;23.178;2023-08-21T08:53:17;5.63;;;4.13;;
11010;SDS011;5558;42.702;23.178;2023-08-21T08:55:44;5.20;;;3.80;;
11010;SDS011;5558;42.702;23.178;2023-08-21T08:58:11;5.47;;;3.90;;
11010;SDS011;5558;42.702;23.178;2023-08-21T09:00:38;5.37;;;3.93;;
11010;SDS011;5558;42.702;23.178;2023-08-21T09:03:04;6.13;;;3.80;;
11010;SDS011;5558;42.702;23.178;2023-08-21T09:05:31;7.47;;;4.03;;
11010;SDS011;5558;42.702;23.178;2023-08-21T09:08:08;5.33;;;3.80;;
11010;SDS011;5558;42.702;23.178;2023-08-21T09:10:36;5.03;;;3.53;;
11010;SDS011;5558;42.702;23.178;2023-08-21T09:13:08;4.47;;;3.73;;
11010;SDS011;5558;42.702;23.178;2023-08-21T09:15:35;4.30;;;3.90;;
11010;SDS011;5558;42.702;23.178;2023-08-21T09:18:02;4.57;;;3.87;;
11010;SDS011;5558;42.702;23.178;2023-08-21T09:20:34;6.77;;;4.27;;
11010;SDS011;5558;42.702;23.178;2023-08-21T09:23:01;4.67;;;3.90;;
11010;SDS011;5558;42.702;23.178;2023-08-21T09:25:30;5.83;;;4.10;;
11010;SDS011;5558;42.702;23.178;2023-08-21T09:28:03;7.30;;;4.10;;
11010;SDS011;5558;42.702;23.178;2023-08-21T09:30:35;6.40;;;3.80;;
11010;SDS011;5558;42.702;23.178;2023-08-21T09:33:10;5.93;;;4.00;;
11010;SDS011;5558;42.702;23.178;2023-08-21T09:35:36;6.53;;;3.70;;
11010;SDS011;5558;42.702;23.178;2023-08-21T09:38:04;5.00;;;3.50;;
11010;SDS011;5558;42.702;23.178;2023-08-21T09:40:33;5.27;;;3.93;;
11010;SDS011;5558;42.702;23.178;2023-08-21T09:43:00;4.53;;;3.87;;
11010;SDS011;5558;42.702;23.178;2023-08-21T09:45:30;4.10;;;3.70;;
11010;SDS011;5558;42.702;23.178;2023-08-21T09:47:57;7.23;;;3.57;;
11010;SDS011;5558;42.702;23.178;2023-08-21T09:50:24;4.30;;;3.60;;
11010;SDS011;5558;42.702;23.178;2023-08-21T09:52:52;4.93;;;3.50;;
11010;SDS011;5558;42.702;23.178;2023-08-21T09:55:19;5.67;;;3.90;;
11010;SDS011;5558;42.702;23.178;2023-08-21T09:57:49;5.07;;;4.13;;
11010;SDS011;5558;42.702;23.178;2023-08-21T10:00:23;5.80;;;3.77;;
11010;SDS011;5558;42.702;23.178;2023-08-21T10:02:50;4.43;;;3.60;;
11010;SDS011;5558;42.702;23.178;2023-08-21T10:05:17;5.77;;;3.70;;
11010;SDS011;5558;42.702;23.178;2023-08-21T10:07:45;4.93;;;3.67;;
11010;SDS011;5558;42.702;23.178;2023-08-21T10:10:14;7.77;;;3.80;;
11010;SDS011;5558;42.702;23.178;2023-08-21T10:12:42;5.53;;;3.67;;
11010;SDS011;5558;42.702;23.178;2023-08-21T10:15:10;6.20;;;3.70;;
11010;SDS011;5558;42.702;23.178;2023-08-21T10:17:38;6.30;;;3.60;;
11010;SDS011;5558;42.702;23.178;2023-08-21T10:20:05;8.70;;;3.83;;
11010;SDS011;5558;42.702;23.178;2023-08-21T10:22:42;5.97;;;3.83;;
11010;SDS011;5558;42.702;23.178;2023-08-21T10:25:14;6.43;;;3.70;;
11010;SDS011;5558;42.702;23.178;2023-08-21T10:27:41;5.10;;;3.80;;
11010;SDS011;5558;42.702;23.178;2023-08-21T10:30:14;5.17;;;3.60;;
11010;SDS011;5558;42.702;23.178;2023-08-21T10:32:46;5.97;;;3.87;;
11010;SDS011;5558;42.702;23.178;2023-08-21T10:35:14;7.63;;;4.10;;
11010;SDS011;5558;42.702;23.178;2023-08-21T10:40:34;4.47;;;3.50;;
11010;SDS011;5558;42.702;23.178;2023-08-21T10:43:01;5.90;;;3.63;;
11010;SDS011;5558;42.702;23.178;2023-08-21T10:45:30;5.27;;;3.90;;
11010;SDS011;5558;42.702;23.178;2023-08-21T10:47:57;4.33;;;3.83;;
11010;SDS011;5558;42.702;23.178;2023-08-21T10:50:24;4.37;;;3.40;;
11010;SDS011;5558;42.702;23.178;2023-08-21T10:52:51;4.67;;;3.60;;
11010;SDS011;5558;42.702;23.178;2023-08-21T10:55:18;4.93;;;3.50;;
11010;SDS011;5558;42.702;23.178;2023-08-21T10:57:46;7.30;;;3.63;;
11010;SDS011;5558;42.702;23.178;2023-08-21T11:00:14;5.90;;;3.77;;
11010;SDS011;5558;42.702;23.178;2023-08-21T11:02:44;6.10;;;3.70;;
11010;SDS011;5558;42.702;23.178;2023-08-21T11:05:12;5.73;;;3.60;;
11010;SDS011;5558;42.702;23.178;2023-08-21T11:07:40;6.20;;;3.60;;
11010;SDS011;5558;42.702;23.178;2023-08-21T11:10:10;5.30;;;3.83;;
11010;SDS011;5558;42.702;23.178;2023-08-21T11:12:38;4.20;;;3.80;;
11010;SDS011;5558;42.702;23.178;2023-08-21T11:15:15;4.73;;;3.60;;
11010;SDS011;5558;42.702;23.178;2023-08-21T11:17:41;5.70;;;3.70;;
11010;SDS011;5558;42.702;23.178;2023-08-21T11:20:16;4.57;;;3.80;;
11010;SDS011;5558;42.702;23.178;2023-08-21T11:22:43;6.33;;;3.80;;
11010;SDS011;5558;42.702;23.178;2023-08-21T11:25:10;5.40;;;3.70;;
11010;SDS011;5558;42.702;23.178;2023-08-21T11:27:37;5.93;;;3.63;;
11010;SDS011;5558;42.702;23.178;2023-08-21T11:30:05;6.63;;;3.47;;
11010;SDS011;5558;42.702;23.178;2023-08-21T11:32:32;5.10;;;3.33;;
11010;SDS011;5558;42.702;23.178;2023-08-21T11:35:00;6.87;;;3.67;;
11010;SDS011;5558;42.702;23.178;2023-08-21T11:37:28;7.47;;;3.60;;
11010;SDS011;5558;42.702;23.178;2023-08-21T11:39:55;8.70;;;4.30;;
11010;SDS011;5558;42.702;23.178;2023-08-21T11:42:28;8.70;;;4.63;;
11010;SDS011;5558;42.702;23.178;2023-08-21T11:44:56;6.50;;;4.43;;
11010;SDS011;5558;42.702;23.178;2023-08-21T11:47:23;7.77;;;5.10;;
11010;SDS011;5558;42.702;23.178;2023-08-21T11:49:50;6.43;;;4.50;;
11010;SDS011;5558;42.702;23.178;2023-08-21T11:52:19;8.90;;;5.50;;
11010;SDS011;5558;42.702;23.178;2023-08-21T11:54:47;5.77;;;4.90;;
11010;SDS011;5558;42.702;23.178;2023-08-21T11:57:15;8.03;;;5.27;;
11010;SDS011;5558;42.702;23.178;2023-08-21T11:59:42;5.87;;;5.27;;
11010;SDS011;5558;42.702;23.178;2023-08-21T12:02:09;11.33;;;6.83;;
11010;SDS011;5558;42.702;23.178;2023-08-21T12:04:39;7.97;;;5.30;;
11010;SDS011;5558;42.702;23.178;2023-08-21T12:07:06;5.90;;;4.37;;
11010;SDS011;5558;42.702;23.178;2023-08-21T12:09:34;7.23;;;4.20;;
11010;SDS011;5558;42.702;23.178;2023-08-21T12:12:01;5.10;;;4.27;;
11010;SDS011;5558;42.702;23.178;2023-08-21T12:14:28;8.43;;;3.93;;
11010;SDS011;5558;42.702;23.178;2023-08-21T12:16:55;6.90;;;4.60;;
11010;SDS011;5558;42.702;23.178;2023-08-21T12:19:22;6.93;;;3.87;;
11010;SDS011;5558;42.702;23.178;2023-08-21T12:21:49;4.67;;;3.70;;
11010;SDS011;5558;42.702;23.178;2023-08-21T12:24:16;6.20;;;3.73;;
11010;SDS011;5558;42.702;23.178;2023-08-21T12:26:44;6.80;;;3.73;;
11010;SDS011;5558;42.702;23.178;2023-08-21T12:29:11;5.40;;;3.90;;
11010;SDS011;5558;42.702;23.178;2023-08-21T12:31:38;6.13;;;3.60;;
11010;SDS011;5558;42.702;23.178;2023-08-21T12:34:04;7.33;;;4.00;;
11010;SDS011;5558;42.702;23.178;2023-08-21T12:36:33;5.33;;;3.70;;
11010;SDS011;5558;42.702;23.178;2023-08-21T12:39:00;5.80;;;3.80;;
11010;SDS011;5558;42.702;23.178;2023-08-21T12:41:27;5.53;;;3.70;;
11010;SDS011;5558;42.702;23.178;2023-08-21T12:43:55;6.63;;;3.63;;
11010;SDS011;5558;42.702;23.178;2023-08-21T12:46:22;6.73;;;3.60;;
11010;SDS011;5558;42.702;23.178;2023-08-21T12:48:49;4.80;;;3.93;;
11010;SDS011;5558;42.702;23.178;2023-08-21T12:51:16;6.77;;;3.67;;
11010;SDS011;5558;42.702;23.178;2023-08-21T12:53:42;4.77;;;3.70;;
11010;SDS011;5558;42.702;23.178;2023-08-21T12:56:09;7.80;;;3.53;;
11010;SDS011;5558;42.702;23.178;2023-08-21T12:58:36;7.43;;;3.67;;
11010;SDS011;5558;42.702;23.178;2023-08-21T13:01:04;6.20;;;3.87;;
11010;SDS011;5558;42.702;23.178;2023-08-21T13:03:32;4.63;;;3.80;;
11010;SDS011;5558;42.702;23.178;2023-08-21T13:05:59;6.93;;;3.80;;
11010;SDS011;5558;42.702;23.178;2023-08-21T13:08:26;4.13;;;3.40;;
11010;SDS011;5558;42.702;23.178;2023-08-21T13:10:52;4.10;;;3.70;;
11010;SDS011;5558;42.702;23.178;2023-08-21T13:13:19;4.20;;;3.50;;
11010;SDS011;5558;42.702;23.178;2023-08-21T13:15:46;3.93;;;3.40;;
11010;SDS011;5558;42.702;23.178;2023-08-21T13:18:14;6.60;;;3.73;;
11010;SDS011;5558;42.702;23.178;2023-08-21T13:20:41;5.30;;;3.77;;
11010;SDS011;5558;42.702;23.178;2023-08-21T13:23:07;5.40;;;3.10;;
11010;SDS011;5558;42.702;23.178;2023-08-21T13:25:34;5.00;;;3.50;;
11010;SDS011;5558;42.702;23.178;2023-08-21T13:28:01;3.73;;;3.30;;
11010;SDS011;5558;42.702;23.178;2023-08-21T13:30:29;4.50;;;3.70;;
11010;SDS011;5558;42.702;23.178;2023-08-21T13:32:56;5.40;;;3.37;;
11010;SDS011;5558;42.702;23.178;2023-08-21T13:35:25;5.63;;;3.63;;
11010;SDS011;5558;42.702;23.178;2023-08-21T13:37:51;3.70;;;3.37;;
11010;SDS011;5558;42.702;23.178;2023-08-21T13:40:18;3.87;;;3.47;;
11010;SDS011;5558;42.702;23.178;2023-08-21T13:42:46;5.97;;;3.40;;
11010;SDS011;5558;42.702;23.178;2023-08-21T13:45:14;4.67;;;3.37;;
11010;SDS011;5558;42.702;23.178;2023-08-21T13:47:43;4.67;;;3.50;;
11010;SDS011;5558;42.702;23.178;2023-08-21T13:50:11;4.77;;;3.60;;
11010;SDS011;5558;42.702;23.178;2023-08-21T13:52:39;5.73;;;3.40;;
11010;SDS011;5558;42.702;23.178;2023-08-21T13:55:07;4.50;;;3.53;;
11010;SDS011;5558;42.702;23.178;2023-08-21T13:57:34;5.83;;;3.40;;
11010;SDS011;5558;42.702;23.178;2023-08-21T14:00:01;4.83;;;3.47;;
11010;SDS011;5558;42.702;23.178;2023-08-21T14:02:32;7.10;;;3.53;;
11010;SDS011;5558;42.702;23.178;2023-08-21T14:04:59;5.50;;;3.50;;
11010;SDS011;5558;42.702;23.178;2023-08-21T14:07:26;5.90;;;3.40;;
11010;SDS011;5558;42.702;23.178;2023-08-21T14:09:54;5.50;;;3.53;;
11010;SDS011;5558;42.702;23.178;2023-08-21T14:12:21;5.57;;;3.67;;
11010;SDS011;5558;42.702;23.178;2023-08-21T14:14:48;5.07;;;3.77;;
11010;SDS011;5558;42.702;23.178;2023-08-21T14:17:15;4.40;;;3.30;;
11010;SDS011;5558;42.702;23.178;2023-08-21T14:19:41;5.53;;;3.53;;
11010;SDS011;5558;42.702;23.178;2023-08-21T14:22:08;5.10;;;3.50;;
11010;SDS011;5558;42.702;23.178;2023-08-21T14:24:35;5.33;;;3.60;;
11010;SDS011;5558;42.702;23.178;2023-08-21T14:27:03;5.83;;;3.80;;
11010;SDS011;5558;42.702;23.178;2023-08-21T14:29:30;5.37;;;3.70;;
11010;SDS011;5558;42.702;23.178;2023-08-21T14:31:57;4.50;;;3.53;;
11010;SDS011;5558;42.702;23.178;2023-08-21T14:34:25;5.43;;;3.60;;
11010;SDS011;5558;42.702;23.178;2023-08-21T14:36:51;4.23;;;3.83;;
11010;SDS011;5558;42.702;23.178;2023-08-21T14:39:19;4.43;;;3.57;;
11010;SDS011;5558;42.702;23.178;2023-08-21T14:41:46;5.13;;;3.57;;
11010;SDS011;5558;42.702;23.178;2023-08-21T14:44:14;5.70;;;3.50;;
11010;SDS011;5558;42.702;23.178;2023-08-21T14:46:40;4.50;;;3.80;;
11010;SDS011;5558;42.702;23.178;2023-08-21T14:49:07;6.07;;;3.60;;
11010;SDS011;5558;42.702;23.178;2023-08-21T14:51:34;4.40;;;3.50;;